sensor_id;sensor_type;location;lat;lon;timestamp;P1;durP1;ratioP1;P2;durP2;ratioP2
44728;SDS011;30457;53.590;9.922;2024-02-21T00:00:09;28.88;;;11.88;;
44728;SDS011;30457;53.590;9.922;2024-02-21T00:04:36;28.38;;;12.38;;
44728;SDS011;30457;53.590;9.922;2024-02-21T00:09:03;22.75;;;10.63;;
44728;SDS011;30457;53.590;9.922;2024-02-21T00:13:29;22.05;;;11.35;;
44728;SDS011;30457;53.590;9.922;2024-02-21T00:17:54;24.40;;;11.25;;
44728;SDS011;30457;53.590;9.922;2024-02-21T00:22:20;27.10;;;12.73;;
44728;SDS011;30457;53.590;9.922;2024-02-21T00:26:46;23.13;;;11.70;;
44728;SDS011;30457;53.590;9.922;2024-02-21T00:31:11;23.98;;;11.07;;
44728;SDS011;30457;53.590;9.922;2024-02-21T00:35:37;19.92;;;11.30;;
44728;SDS011;30457;53.590;9.922;2024-02-21T00:40:03;24.38;;;12.65;;
44728;SDS011;30457;53.590;9.922;2024-02-21T00:44:30;24.45;;;12.93;;
44728;SDS011;30457;53.590;9.922;2024-02-21T00:48:55;24.20;;;11.27;;
44728;SDS011;30457;53.590;9.922;2024-02-21T00:53:21;29.92;;;11.68;;
44728;SDS011;30457;53.590;9.922;2024-02-21T00:57:47;26.65;;;13.05;;
44728;SDS011;30457;53.590;9.922;2024-02-21T01:02:12;30.02;;;12.45;;
44728;SDS011;30457;53.590;9.922;2024-02-21T01:06:38;23.77;;;11.63;;
44728;SDS011;30457;53.590;9.922;2024-02-21T01:11:03;20.63;;;11.02;;
44728;SDS011;30457;53.590;9.922;2024-02-21T01:15:29;27.95;;;12.90;;
44728;SDS011;30457;53.590;9.922;2024-02-21T01:19:54;31.83;;;13.80;;
44728;SDS011;30457;53.590;9.922;2024-02-21T01:24:20;28.13;;;12.63;;
44728;SDS011;30457;53.590;9.922;2024-02-21T01:28:45;32.15;;;11.55;;
44728;SDS011;30457;53.590;9.922;2024-02-21T01:33:11;27.60;;;11.18;;
44728;SDS011;30457;53.590;9.922;2024-02-21T01:37:37;26.33;;;10.93;;
44728;SDS011;30457;53.590;9.922;2024-02-21T01:42:02;20.35;;;10.55;;
44728;SDS011;30457;53.590;9.922;2024-02-21T01:46:28;21.75;;;10.82;;
44728;SDS011;30457;53.590;9.922;2024-02-21T01:50:55;21.27;;;10.15;;
44728;SDS011;30457;53.590;9.922;2024-02-21T01:55:21;16.33;;;10.00;;
44728;SDS011;30457;53.590;9.922;2024-02-21T01:59:47;21.20;;;11.00;;
44728;SDS011;30457;53.590;9.922;2024-02-21T02:04:12;20.50;;;11.43;;
44728;SDS011;30457;53.590;9.922;2024-02-21T02:08:38;20.05;;;10.57;;
44728;SDS011;30457;53.590;9.922;2024-02-21T02:13:04;22.13;;;10.88;;
44728;SDS011;30457;53.590;9.922;2024-02-21T02:17:30;20.40;;;11.02;;
44728;SDS011;30457;53.590;9.922;2024-02-21T02:21:57;20.75;;;12.35;;
44728;SDS011;30457;53.590;9.922;2024-02-21T02:26:46;26.48;;;12.20;;
44728;SDS011;30457;53.590;9.922;2024-02-21T02:31:11;20.83;;;12.43;;
44728;SDS011;30457;53.590;9.922;2024-02-21T02:35:37;21.50;;;11.95;;
44728;SDS011;30457;53.590;9.922;2024-02-21T02:40:03;27.50;;;14.00;;
44728;SDS011;30457;53.590;9.922;2024-02-21T02:44:29;24.13;;;14.13;;
44728;SDS011;30457;53.590;9.922;2024-02-21T02:48:54;29.83;;;16.25;;
44728;SDS011;30457;53.590;9.922;2024-02-21T02:53:20;28.08;;;16.33;;
44728;SDS011;30457;53.590;9.922;2024-02-21T02:57:46;28.05;;;14.77;;
44728;SDS011;30457;53.590;9.922;2024-02-21T03:02:11;29.92;;;13.43;;
44728;SDS011;30457;53.590;9.922;2024-02-21T03:06:37;26.35;;;14.57;;
44728;SDS011;30457;53.590;9.922;2024-02-21T03:11:03;24.13;;;14.07;;
44728;SDS011;30457;53.590;9.922;2024-02-21T03:15:28;31.25;;;15.15;;
44728;SDS011;30457;53.590;9.922;2024-02-21T03:19:54;23.80;;;14.70;;
44728;SDS011;30457;53.590;9.922;2024-02-21T03:24:24;31.58;;;15.07;;
44728;SDS011;30457;53.590;9.922;2024-02-21T03:28:50;32.35;;;14.75;;
44728;SDS011;30457;53.590;9.922;2024-02-21T03:33:15;30.05;;;13.85;;
44728;SDS011;30457;53.590;9.922;2024-02-21T03:37:41;21.85;;;13.32;;
44728;SDS011;30457;53.590;9.922;2024-02-21T03:42:07;25.20;;;14.35;;
44728;SDS011;30457;53.590;9.922;2024-02-21T03:46:32;30.38;;;13.15;;
44728;SDS011;30457;53.590;9.922;2024-02-21T03:50:58;20.67;;;12.25;;
44728;SDS011;30457;53.590;9.922;2024-02-21T03:55:24;29.70;;;14.52;;
44728;SDS011;30457;53.590;9.922;2024-02-21T03:59:50;22.02;;;11.85;;
44728;SDS011;30457;53.590;9.922;2024-02-21T04:04:16;23.67;;;12.82;;
44728;SDS011;30457;53.590;9.922;2024-02-21T04:08:42;23.38;;;12.35;;
44728;SDS011;30457;53.590;9.922;2024-02-21T04:13:07;24.17;;;12.05;;
44728;SDS011;30457;53.590;9.922;2024-02-21T04:17:33;22.83;;;11.10;;
44728;SDS011;30457;53.590;9.922;2024-02-21T04:21:59;22.52;;;12.63;;
44728;SDS011;30457;53.590;9.922;2024-02-21T04:26:24;21.60;;;12.10;;
44728;SDS011;30457;53.590;9.922;2024-02-21T04:30:50;21.58;;;11.95;;
44728;SDS011;30457;53.590;9.922;2024-02-21T04:35:16;22.33;;;11.32;;
44728;SDS011;30457;53.590;9.922;2024-02-21T04:39:41;15.95;;;9.18;;
44728;SDS011;30457;53.590;9.922;2024-02-21T04:44:07;18.00;;;10.93;;
44728;SDS011;30457;53.590;9.922;2024-02-21T04:48:33;15.68;;;9.00;;
44728;SDS011;30457;53.590;9.922;2024-02-21T04:52:59;16.77;;;9.70;;
44728;SDS011;30457;53.590;9.922;2024-02-21T04:57:24;15.02;;;8.27;;
44728;SDS011;30457;53.590;9.922;2024-02-21T05:01:50;13.85;;;7.35;;
44728;SDS011;30457;53.590;9.922;2024-02-21T05:06:16;11.65;;;7.30;;
44728;SDS011;30457;53.590;9.922;2024-02-21T05:10:41;10.65;;;7.60;;
44728;SDS011;30457;53.590;9.922;2024-02-21T05:15:07;9.90;;;6.90;;
44728;SDS011;30457;53.590;9.922;2024-02-21T05:19:33;9.45;;;5.93;;
44728;SDS011;30457;53.590;9.922;2024-02-21T05:23:58;11.18;;;6.95;;
44728;SDS011;30457;53.590;9.922;2024-02-21T05:28:24;10.23;;;6.80;;
44728;SDS011;30457;53.590;9.922;2024-02-21T05:32:50;8.13;;;5.70;;
44728;SDS011;30457;53.590;9.922;2024-02-21T05:37:16;11.10;;;6.30;;
44728;SDS011;30457;53.590;9.922;2024-02-21T05:41:41;9.00;;;5.55;;
44728;SDS011;30457;53.590;9.922;2024-02-21T05:46:07;10.10;;;5.50;;
44728;SDS011;30457;53.590;9.922;2024-02-21T05:50:32;7.80;;;5.22;;
44728;SDS011;30457;53.590;9.922;2024-02-21T05:54:58;8.38;;;5.07;;
44728;SDS011;30457;53.590;9.922;2024-02-21T05:59:23;6.68;;;4.85;;
44728;SDS011;30457;53.590;9.922;2024-02-21T06:03:49;18.98;;;5.35;;
44728;SDS011;30457;53.590;9.922;2024-02-21T06:08:14;7.10;;;4.75;;
44728;SDS011;30457;53.590;9.922;2024-02-21T06:12:40;5.53;;;3.63;;
44728;SDS011;30457;53.590;9.922;2024-02-21T06:17:05;4.72;;;3.50;;
44728;SDS011;30457;53.590;9.922;2024-02-21T06:21:31;4.13;;;3.45;;
44728;SDS011;30457;53.590;9.922;2024-02-21T06:25:57;3.90;;;2.92;;
44728;SDS011;30457;53.590;9.922;2024-02-21T06:30:22;5.00;;;3.80;;
44728;SDS011;30457;53.590;9.922;2024-02-21T06:34:48;6.28;;;3.05;;
44728;SDS011;30457;53.590;9.922;2024-02-21T06:39:13;5.68;;;3.45;;
44728;SDS011;30457;53.590;9.922;2024-02-21T06:43:39;9.63;;;3.03;;
44728;SDS011;30457;53.590;9.922;2024-02-21T06:48:04;3.88;;;3.10;;
44728;SDS011;30457;53.590;9.922;2024-02-21T06:52:30;3.08;;;2.40;;
44728;SDS011;30457;53.590;9.922;2024-02-21T06:56:56;2.63;;;2.20;;
44728;SDS011;30457;53.590;9.922;2024-02-21T07:01:21;3.92;;;2.40;;
44728;SDS011;30457;53.590;9.922;2024-02-21T07:05:47;3.15;;;2.55;;
44728;SDS011;30457;53.590;9.922;2024-02-21T07:10:12;2.90;;;2.45;;
44728;SDS011;30457;53.590;9.922;2024-02-21T07:14:38;3.25;;;2.95;;
44728;SDS011;30457;53.590;9.922;2024-02-21T07:19:03;4.38;;;3.00;;
44728;SDS011;30457;53.590;9.922;2024-02-21T07:23:30;3.80;;;2.95;;
44728;SDS011;30457;53.590;9.922;2024-02-21T07:27:55;3.83;;;2.72;;
44728;SDS011;30457;53.590;9.922;2024-02-21T07:32:21;4.72;;;3.00;;
44728;SDS011;30457;53.590;9.922;2024-02-21T07:36:46;5.18;;;3.78;;
44728;SDS011;30457;53.590;9.922;2024-02-21T07:41:12;4.60;;;3.20;;
44728;SDS011;30457;53.590;9.922;2024-02-21T07:45:37;3.70;;;2.95;;
44728;SDS011;30457;53.590;9.922;2024-02-21T07:50:04;2.47;;;2.28;;
44728;SDS011;30457;53.590;9.922;2024-02-21T07:54:30;3.90;;;2.10;;
44728;SDS011;30457;53.590;9.922;2024-02-21T07:58:56;5.35;;;2.13;;
44728;SDS011;30457;53.590;9.922;2024-02-21T08:03:21;5.20;;;2.53;;
44728;SDS011;30457;53.590;9.922;2024-02-21T08:07:48;11.57;;;2.45;;
44728;SDS011;30457;53.590;9.922;2024-02-21T08:12:13;7.20;;;2.30;;
44728;SDS011;30457;53.590;9.922;2024-02-21T08:16:39;9.55;;;2.55;;
44728;SDS011;30457;53.590;9.922;2024-02-21T08:21:04;8.40;;;1.98;;
44728;SDS011;30457;53.590;9.922;2024-02-21T08:25:30;8.80;;;1.85;;
44728;SDS011;30457;53.590;9.922;2024-02-21T08:29:55;8.45;;;2.42;;
44728;SDS011;30457;53.590;9.922;2024-02-21T08:34:21;10.38;;;2.53;;
44728;SDS011;30457;53.590;9.922;2024-02-21T08:38:47;6.28;;;2.38;;
44728;SDS011;30457;53.590;9.922;2024-02-21T08:43:12;5.72;;;2.20;;
44728;SDS011;30457;53.590;9.922;2024-02-21T08:47:41;11.90;;;2.22;;
44728;SDS011;30457;53.590;9.922;2024-02-21T08:52:07;7.75;;;2.00;;
44728;SDS011;30457;53.590;9.922;2024-02-21T08:56:35;4.18;;;1.75;;
44728;SDS011;30457;53.590;9.922;2024-02-21T09:01:01;10.40;;;2.78;;
44728;SDS011;30457;53.590;9.922;2024-02-21T09:05:26;7.53;;;2.00;;
44728;SDS011;30457;53.590;9.922;2024-02-21T09:09:52;5.05;;;1.90;;
44728;SDS011;30457;53.590;9.922;2024-02-21T09:14:17;7.53;;;2.22;;
44728;SDS011;30457;53.590;9.922;2024-02-21T09:18:43;7.53;;;2.20;;
44728;SDS011;30457;53.590;9.922;2024-02-21T09:23:08;10.00;;;2.75;;
44728;SDS011;30457;53.590;9.922;2024-02-21T09:27:34;15.50;;;2.55;;
44728;SDS011;30457;53.590;9.922;2024-02-21T09:32:00;7.13;;;2.10;;
44728;SDS011;30457;53.590;9.922;2024-02-21T09:36:25;4.32;;;1.95;;
44728;SDS011;30457;53.590;9.922;2024-02-21T09:40:54;9.38;;;2.78;;
44728;SDS011;30457;53.590;9.922;2024-02-21T09:45:26;4.57;;;1.73;;
44728;SDS011;30457;53.590;9.922;2024-02-21T09:49:51;8.88;;;2.08;;
44728;SDS011;30457;53.590;9.922;2024-02-21T09:54:17;3.60;;;1.27;;
44728;SDS011;30457;53.590;9.922;2024-02-21T09:58:43;2.20;;;1.50;;
44728;SDS011;30457;53.590;9.922;2024-02-21T10:03:09;3.25;;;1.33;;
44728;SDS011;30457;53.590;9.922;2024-02-21T10:07:35;3.72;;;1.30;;
44728;SDS011;30457;53.590;9.922;2024-02-21T10:12:07;2.65;;;1.48;;
44728;SDS011;30457;53.590;9.922;2024-02-21T10:16:34;5.53;;;3.47;;
44728;SDS011;30457;53.590;9.922;2024-02-21T10:21:08;4.63;;;2.70;;
44728;SDS011;30457;53.590;9.922;2024-02-21T10:25:34;5.18;;;3.60;;
44728;SDS011;30457;53.590;9.922;2024-02-21T10:30:00;5.72;;;3.80;;
44728;SDS011;30457;53.590;9.922;2024-02-21T10:34:26;10.00;;;6.18;;
44728;SDS011;30457;53.590;9.922;2024-02-21T10:38:52;10.70;;;6.05;;
44728;SDS011;30457;53.590;9.922;2024-02-21T10:43:18;11.43;;;7.03;;
44728;SDS011;30457;53.590;9.922;2024-02-21T10:47:45;15.98;;;10.07;;
44728;SDS011;30457;53.590;9.922;2024-02-21T10:52:14;13.07;;;9.43;;
44728;SDS011;30457;53.590;9.922;2024-02-21T10:56:59;17.20;;;10.80;;
44728;SDS011;30457;53.590;9.922;2024-02-21T11:01:28;19.77;;;11.15;;
44728;SDS011;30457;53.590;9.922;2024-02-21T11:05:56;18.33;;;9.77;;
44728;SDS011;30457;53.590;9.922;2024-02-21T11:10:23;18.20;;;9.60;;
44728;SDS011;30457;53.590;9.922;2024-02-21T11:14:49;21.67;;;11.10;;
44728;SDS011;30457;53.590;9.922;2024-02-21T11:23:56;15.48;;;8.68;;
44728;SDS011;30457;53.590;9.922;2024-02-21T11:28:25;11.93;;;8.87;;
44728;SDS011;30457;53.590;9.922;2024-02-21T11:32:58;15.40;;;8.20;;
44728;SDS011;30457;53.590;9.922;2024-02-21T11:37:31;11.55;;;8.00;;
44728;SDS011;30457;53.590;9.922;2024-02-21T11:42:04;15.60;;;8.77;;
44728;SDS011;30457;53.590;9.922;2024-02-21T11:46:32;12.60;;;7.32;;
44728;SDS011;30457;53.590;9.922;2024-02-21T11:50:58;12.48;;;6.60;;
44728;SDS011;30457;53.590;9.922;2024-02-21T11:55:25;12.38;;;5.88;;
44728;SDS011;30457;53.590;9.922;2024-02-21T11:59:51;12.77;;;6.85;;
44728;SDS011;30457;53.590;9.922;2024-02-21T12:04:20;13.57;;;6.43;;
44728;SDS011;30457;53.590;9.922;2024-02-21T12:08:46;18.52;;;6.93;;
44728;SDS011;30457;53.590;9.922;2024-02-21T12:13:12;13.88;;;7.10;;
44728;SDS011;30457;53.590;9.922;2024-02-21T12:17:38;10.82;;;6.22;;
44728;SDS011;30457;53.590;9.922;2024-02-21T12:22:05;14.52;;;6.28;;
44728;SDS011;30457;53.590;9.922;2024-02-21T12:26:33;41.67;;;8.65;;
44728;SDS011;30457;53.590;9.922;2024-02-21T12:31:00;11.35;;;6.63;;
44728;SDS011;30457;53.590;9.922;2024-02-21T12:35:25;10.95;;;6.75;;
44728;SDS011;30457;53.590;9.922;2024-02-21T12:39:51;13.63;;;6.90;;
44728;SDS011;30457;53.590;9.922;2024-02-21T12:44:16;15.48;;;6.47;;
44728;SDS011;30457;53.590;9.922;2024-02-21T12:48:43;12.25;;;6.90;;
44728;SDS011;30457;53.590;9.922;2024-02-21T12:53:08;12.13;;;6.00;;
44728;SDS011;30457;53.590;9.922;2024-02-21T12:57:34;13.27;;;6.35;;
44728;SDS011;30457;53.590;9.922;2024-02-21T13:01:59;14.65;;;6.78;;
44728;SDS011;30457;53.590;9.922;2024-02-21T13:06:25;16.83;;;7.55;;
44728;SDS011;30457;53.590;9.922;2024-02-21T13:10:51;14.93;;;7.57;;
44728;SDS011;30457;53.590;9.922;2024-02-21T13:15:16;17.98;;;7.93;;
44728;SDS011;30457;53.590;9.922;2024-02-21T13:19:42;12.73;;;6.90;;
44728;SDS011;30457;53.590;9.922;2024-02-21T13:24:08;16.73;;;7.72;;
44728;SDS011;30457;53.590;9.922;2024-02-21T13:28:33;9.80;;;6.55;;
44728;SDS011;30457;53.590;9.922;2024-02-21T13:32:59;14.77;;;7.55;;
44728;SDS011;30457;53.590;9.922;2024-02-21T13:37:25;15.63;;;6.80;;
44728;SDS011;30457;53.590;9.922;2024-02-21T13:41:52;11.45;;;6.32;;
44728;SDS011;30457;53.590;9.922;2024-02-21T13:46:17;9.35;;;6.10;;
44728;SDS011;30457;53.590;9.922;2024-02-21T13:50:43;10.75;;;6.75;;
44728;SDS011;30457;53.590;9.922;2024-02-21T13:55:08;13.27;;;7.15;;
44728;SDS011;30457;53.590;9.922;2024-02-21T13:59:34;9.63;;;6.75;;
44728;SDS011;30457;53.590;9.922;2024-02-21T14:03:59;20.83;;;8.65;;
44728;SDS011;30457;53.590;9.922;2024-02-21T14:08:25;10.88;;;6.68;;
44728;SDS011;30457;53.590;9.922;2024-02-21T14:12:50;10.27;;;6.13;;
44728;SDS011;30457;53.590;9.922;2024-02-21T14:17:16;12.32;;;6.32;;
44728;SDS011;30457;53.590;9.922;2024-02-21T14:21:41;11.60;;;5.88;;
44728;SDS011;30457;53.590;9.922;2024-02-21T14:26:07;10.13;;;5.80;;
44728;SDS011;30457;53.590;9.922;2024-02-21T14:30:32;12.25;;;6.95;;
44728;SDS011;30457;53.590;9.922;2024-02-21T14:34:58;15.23;;;6.45;;
44728;SDS011;30457;53.590;9.922;2024-02-21T14:39:24;11.02;;;6.70;;
44728;SDS011;30457;53.590;9.922;2024-02-21T14:43:50;7.82;;;4.50;;
44728;SDS011;30457;53.590;9.922;2024-02-21T14:48:16;8.95;;;5.30;;
44728;SDS011;30457;53.590;9.922;2024-02-21T14:52:42;10.15;;;5.00;;
44728;SDS011;30457;53.590;9.922;2024-02-21T14:57:09;11.13;;;4.65;;
44728;SDS011;30457;53.590;9.922;2024-02-21T15:01:37;7.53;;;4.78;;
44728;SDS011;30457;53.590;9.922;2024-02-21T15:06:03;11.32;;;4.32;;
44728;SDS011;30457;53.590;9.922;2024-02-21T15:10:29;10.48;;;5.78;;
44728;SDS011;30457;53.590;9.922;2024-02-21T15:14:54;7.13;;;5.20;;
44728;SDS011;30457;53.590;9.922;2024-02-21T15:19:20;9.30;;;4.72;;
44728;SDS011;30457;53.590;9.922;2024-02-21T15:23:45;7.10;;;4.38;;
44728;SDS011;30457;53.590;9.922;2024-02-21T15:28:11;9.10;;;4.43;;
44728;SDS011;30457;53.590;9.922;2024-02-21T15:32:38;7.00;;;3.95;;
44728;SDS011;30457;53.590;9.922;2024-02-21T15:37:04;10.15;;;4.40;;
44728;SDS011;30457;53.590;9.922;2024-02-21T15:41:30;10.43;;;4.20;;
44728;SDS011;30457;53.590;9.922;2024-02-21T15:45:55;7.00;;;3.78;;
44728;SDS011;30457;53.590;9.922;2024-02-21T15:50:21;7.95;;;4.35;;
44728;SDS011;30457;53.590;9.922;2024-02-21T15:54:46;6.53;;;4.38;;
44728;SDS011;30457;53.590;9.922;2024-02-21T15:59:12;8.10;;;4.63;;
44728;SDS011;30457;53.590;9.922;2024-02-21T16:03:38;7.10;;;4.32;;
44728;SDS011;30457;53.590;9.922;2024-02-21T16:08:05;5.18;;;3.70;;
44728;SDS011;30457;53.590;9.922;2024-02-21T16:12:31;5.93;;;3.78;;
44728;SDS011;30457;53.590;9.922;2024-02-21T16:16:57;7.10;;;4.10;;
44728;SDS011;30457;53.590;9.922;2024-02-21T16:21:23;7.05;;;3.88;;
44728;SDS011;30457;53.590;9.922;2024-02-21T16:25:49;7.45;;;4.38;;
44728;SDS011;30457;53.590;9.922;2024-02-21T16:30:14;5.60;;;3.38;;
44728;SDS011;30457;53.590;9.922;2024-02-21T16:34:41;4.95;;;3.40;;
44728;SDS011;30457;53.590;9.922;2024-02-21T16:39:07;5.28;;;3.22;;
44728;SDS011;30457;53.590;9.922;2024-02-21T16:43:36;5.93;;;3.47;;
44728;SDS011;30457;53.590;9.922;2024-02-21T16:48:02;5.05;;;3.33;;
44728;SDS011;30457;53.590;9.922;2024-02-21T16:52:31;9.25;;;3.80;;
44728;SDS011;30457;53.590;9.922;2024-02-21T16:56:56;8.18;;;3.05;;
44728;SDS011;30457;53.590;9.922;2024-02-21T17:01:22;11.55;;;3.28;;
44728;SDS011;30457;53.590;9.922;2024-02-21T17:05:48;5.90;;;3.45;;
44728;SDS011;30457;53.590;9.922;2024-02-21T17:10:13;7.00;;;3.58;;
44728;SDS011;30457;53.590;9.922;2024-02-21T17:14:39;8.18;;;4.15;;
44728;SDS011;30457;53.590;9.922;2024-02-21T17:19:05;6.57;;;3.40;;
44728;SDS011;30457;53.590;9.922;2024-02-21T17:23:30;6.50;;;4.18;;
44728;SDS011;30457;53.590;9.922;2024-02-21T17:27:57;7.20;;;3.80;;
44728;SDS011;30457;53.590;9.922;2024-02-21T17:32:22;6.75;;;3.78;;
44728;SDS011;30457;53.590;9.922;2024-02-21T17:36:48;9.57;;;3.88;;
44728;SDS011;30457;53.590;9.922;2024-02-21T17:41:14;9.23;;;4.05;;
44728;SDS011;30457;53.590;9.922;2024-02-21T17:45:40;7.88;;;3.90;;
44728;SDS011;30457;53.590;9.922;2024-02-21T17:50:06;5.38;;;3.28;;
44728;SDS011;30457;53.590;9.922;2024-02-21T17:54:32;8.60;;;4.93;;
44728;SDS011;30457;53.590;9.922;2024-02-21T17:58:57;6.30;;;3.72;;
44728;SDS011;30457;53.590;9.922;2024-02-21T18:03:23;5.13;;;3.33;;
44728;SDS011;30457;53.590;9.922;2024-02-21T18:07:53;7.97;;;3.90;;
44728;SDS011;30457;53.590;9.922;2024-02-21T18:12:19;8.48;;;3.90;;
44728;SDS011;30457;53.590;9.922;2024-02-21T18:16:44;10.48;;;5.95;;
44728;SDS011;30457;53.590;9.922;2024-02-21T18:21:10;6.60;;;3.70;;
44728;SDS011;30457;53.590;9.922;2024-02-21T18:25:35;8.77;;;3.60;;
44728;SDS011;30457;53.590;9.922;2024-02-21T18:30:01;16.58;;;5.22;;
44728;SDS011;30457;53.590;9.922;2024-02-21T18:34:27;11.35;;;4.65;;
44728;SDS011;30457;53.590;9.922;2024-02-21T18:38:53;6.20;;;3.78;;
44728;SDS011;30457;53.590;9.922;2024-02-21T18:43:19;5.45;;;3.85;;
44728;SDS011;30457;53.590;9.922;2024-02-21T18:47:44;5.95;;;4.35;;
44728;SDS011;30457;53.590;9.922;2024-02-21T18:52:10;7.75;;;3.58;;
44728;SDS011;30457;53.590;9.922;2024-02-21T18:56:36;5.65;;;3.05;;
44728;SDS011;30457;53.590;9.922;2024-02-21T19:01:02;8.15;;;3.67;;
44728;SDS011;30457;53.590;9.922;2024-02-21T19:05:28;10.30;;;3.88;;
44728;SDS011;30457;53.590;9.922;2024-02-21T19:09:54;8.40;;;3.58;;
44728;SDS011;30457;53.590;9.922;2024-02-21T19:14:19;6.32;;;3.42;;
44728;SDS011;30457;53.590;9.922;2024-02-21T19:18:45;6.35;;;3.35;;
44728;SDS011;30457;53.590;9.922;2024-02-21T19:23:12;5.65;;;2.65;;
44728;SDS011;30457;53.590;9.922;2024-02-21T19:27:37;7.32;;;2.97;;
44728;SDS011;30457;53.590;9.922;2024-02-21T19:32:06;5.15;;;2.70;;
44728;SDS011;30457;53.590;9.922;2024-02-21T19:36:32;4.70;;;2.55;;
44728;SDS011;30457;53.590;9.922;2024-02-21T19:40:58;7.10;;;2.72;;
44728;SDS011;30457;53.590;9.922;2024-02-21T19:45:24;10.13;;;2.90;;
44728;SDS011;30457;53.590;9.922;2024-02-21T19:49:52;8.10;;;2.80;;
44728;SDS011;30457;53.590;9.922;2024-02-21T19:54:18;7.80;;;2.53;;
44728;SDS011;30457;53.590;9.922;2024-02-21T19:58:44;5.22;;;1.90;;
44728;SDS011;30457;53.590;9.922;2024-02-21T20:03:10;5.13;;;2.40;;
44728;SDS011;30457;53.590;9.922;2024-02-21T20:07:35;4.43;;;2.47;;
44728;SDS011;30457;53.590;9.922;2024-02-21T20:12:01;4.10;;;2.08;;
44728;SDS011;30457;53.590;9.922;2024-02-21T20:16:29;5.82;;;2.15;;
44728;SDS011;30457;53.590;9.922;2024-02-21T20:20:54;6.43;;;2.05;;
44728;SDS011;30457;53.590;9.922;2024-02-21T20:25:20;7.28;;;2.35;;
44728;SDS011;30457;53.590;9.922;2024-02-21T20:29:46;7.32;;;2.72;;
44728;SDS011;30457;53.590;9.922;2024-02-21T20:34:12;6.50;;;2.15;;
44728;SDS011;30457;53.590;9.922;2024-02-21T20:38:38;6.95;;;2.30;;
44728;SDS011;30457;53.590;9.922;2024-02-21T20:43:04;4.35;;;2.08;;
44728;SDS011;30457;53.590;9.922;2024-02-21T20:47:29;2.90;;;1.75;;
44728;SDS011;30457;53.590;9.922;2024-02-21T20:51:55;4.65;;;2.00;;
44728;SDS011;30457;53.590;9.922;2024-02-21T20:56:21;6.20;;;1.80;;
44728;SDS011;30457;53.590;9.922;2024-02-21T21:00:46;8.20;;;2.05;;
44728;SDS011;30457;53.590;9.922;2024-02-21T21:05:12;3.80;;;1.80;;
44728;SDS011;30457;53.590;9.922;2024-02-21T21:09:38;5.10;;;2.00;;
44728;SDS011;30457;53.590;9.922;2024-02-21T21:14:04;8.10;;;1.98;;
44728;SDS011;30457;53.590;9.922;2024-02-21T21:18:30;4.03;;;1.92;;
44728;SDS011;30457;53.590;9.922;2024-02-21T21:22:59;5.30;;;2.10;;
44728;SDS011;30457;53.590;9.922;2024-02-21T21:27:25;7.55;;;2.28;;
44728;SDS011;30457;53.590;9.922;2024-02-21T21:31:51;3.83;;;1.88;;
44728;SDS011;30457;53.590;9.922;2024-02-21T21:36:17;4.72;;;2.00;;
44728;SDS011;30457;53.590;9.922;2024-02-21T21:40:43;4.45;;;2.30;;
44728;SDS011;30457;53.590;9.922;2024-02-21T21:45:10;4.13;;;1.88;;
44728;SDS011;30457;53.590;9.922;2024-02-21T21:49:36;6.45;;;2.67;;
44728;SDS011;30457;53.590;9.922;2024-02-21T21:54:01;9.82;;;2.50;;
44728;SDS011;30457;53.590;9.922;2024-02-21T21:58:29;5.70;;;2.15;;
44728;SDS011;30457;53.590;9.922;2024-02-21T22:02:56;6.13;;;2.10;;
44728;SDS011;30457;53.590;9.922;2024-02-21T22:07:21;6.63;;;2.80;;
44728;SDS011;30457;53.590;9.922;2024-02-21T22:11:47;4.60;;;2.83;;
44728;SDS011;30457;53.590;9.922;2024-02-21T22:16:12;7.93;;;2.45;;
44728;SDS011;30457;53.590;9.922;2024-02-21T22:20:38;3.92;;;2.15;;
44728;SDS011;30457;53.590;9.922;2024-02-21T22:25:04;5.43;;;2.90;;
44728;SDS011;30457;53.590;9.922;2024-02-21T22:29:30;5.00;;;2.40;;
44728;SDS011;30457;53.590;9.922;2024-02-21T22:33:55;3.58;;;2.15;;
44728;SDS011;30457;53.590;9.922;2024-02-21T22:38:22;5.10;;;2.78;;
44728;SDS011;30457;53.590;9.922;2024-02-21T22:42:48;3.60;;;2.05;;
44728;SDS011;30457;53.590;9.922;2024-02-21T22:47:13;8.32;;;3.83;;
44728;SDS011;30457;53.590;9.922;2024-02-21T22:51:39;5.95;;;2.70;;
44728;SDS011;30457;53.590;9.922;2024-02-21T22:56:05;11.77;;;3.28;;
44728;SDS011;30457;53.590;9.922;2024-02-21T23:00:31;8.15;;;2.95;;
44728;SDS011;30457;53.590;9.922;2024-02-21T23:04:56;4.65;;;2.08;;
44728;SDS011;30457;53.590;9.922;2024-02-21T23:09:22;6.13;;;2.20;;
44728;SDS011;30457;53.590;9.922;2024-02-21T23:13:48;3.78;;;2.17;;
44728;SDS011;30457;53.590;9.922;2024-02-21T23:18:14;4.85;;;2.28;;
44728;SDS011;30457;53.590;9.922;2024-02-21T23:22:40;5.50;;;2.83;;
44728;SDS011;30457;53.590;9.922;2024-02-21T23:27:07;7.05;;;2.65;;
44728;SDS011;30457;53.590;9.922;2024-02-21T23:31:33;9.85;;;3.17;;
44728;SDS011;30457;53.590;9.922;2024-02-21T23:35:58;4.28;;;2.20;;
44728;SDS011;30457;53.590;9.922;2024-02-21T23:40:27;6.25;;;2.92;;
44728;SDS011;30457;53.590;9.922;2024-02-21T23:44:52;10.07;;;3.35;;
44728;SDS011;30457;53.590;9.922;2024-02-21T23:49:20;4.90;;;2.47;;
44728;SDS011;30457;53.590;9.922;2024-02-21T23:53:46;4.68;;;2.53;;
44728;SDS011;30457;53.590;9.922;2024-02-21T23:58:12;3.53;;;2.50;;
